Aviation Digital Data Service (ADDS)

Output produced by METARs form (1924 UTC 29 April 2017)
found at http://www.aviationweather.gov/adds/metars/
 
KLNS 291853Z 29013KT 10SM CLR 27/18 A3007 RMK AO2 SLP179 T02670183
KLNS 291753Z 27011KT 10SM CLR 27/19 A3004 RMK AO2 SLP168 60002 T02670189 10267 20189 55005
KLNS 291653Z 29009KT 10SM CLR 26/19 A3003 RMK AO2 SLP166 T02610194
KLNS 291553Z 23003KT 10SM FEW100 24/19 A3001 RMK AO2 SLP159 T02390194
KLNS 291453Z 26011KT 10SM CLR 23/19 A3005 RMK AO2 SLP174 P0001 60002 T02280194 53002
KLNS 291353Z 32006KT 10SM SCT110 22/19 A2997 RMK AO2 RAB03E48 PRESFR SLP145 P0001 T02170189
KLNS 291253Z 27006KT 4SM BR CLR 20/19 A3008 RMK AO2 SLP184 T02000194
KLNS 291202Z 26005KT 3SM BR CLR 19/19 A3006 RMK AO2 T01940189
KLNS 291153Z 24004KT 2 1/2SM BR CLR 19/19 A3005 RMK AO2 SLP172 60014 70014 T01890189 10211 20172 53026
KLNS 291141Z 24005KT 2SM BR CLR 19/19 A3004 RMK AO2 T01890189
KLNS 291053Z 00000KT 1SM BR CLR 18/18 A2998 RMK AO2 PRESRR SLP151 T01780178
KLNS 291032Z 00000KT 1 1/2SM BR CLR 18/18 A2996 RMK AO2 T01780178
KLNS 291012Z 08003KT 2 1/2SM BR CLR 18/18 A2996 RMK AO2 T01780178
KLNS 290953Z AUTO 04003KT 3SM BR CLR 18/18 A2997 RMK AO2 SLP145 T01780178 TSNO
KLNS 290948Z AUTO 05003KT 2 1/2SM BR CLR 18/18 A2997 RMK AO2 TSNO
KLNS 290853Z AUTO 33005KT 5SM BR FEW110 18/18 A3000 RMK AO2 RAE0759B36E46 SLP156 P0000 60014 T01830183 55005 TSNO
KLNS 290753Z AUTO 00000KT 7SM -RA SCT020 BKN075 BKN100 18/18 A2998 RMK AO2 RAB01 PRESFR SLP148 P0014 T01830183 TSNO
KLNS 290745Z AUTO VRB05KT 3SM -RA BR FEW017 BKN022 OVC070 19/18 A2999 RMK AO2 RAB01 PRESFR P0014 T01890183 TSNO
KLNS 290737Z AUTO 32012KT 1 3/4SM +RA BR SCT016 BKN025 OVC110 19/18 A3003 RMK AO2 RAB01 P0012 T01890178 TSNO
KLNS 290653Z AUTO 36003KT 10SM SCT043 BKN065 OVC110 20/17 A3001 RMK AO2 SLP159 T02000167 TSNO
KLNS 290553Z AUTO 10004KT 10SM SCT055 BKN120 18/16 A3002 RMK AO2 PRESFR SLP162 T01830161 10233 20178 58007 TSNO
KLNS 290453Z AUTO 06004KT 9SM BKN120 18/16 A3004 RMK AO2 SLP170 T01830156 402720144 TSNO
KLNS 290353Z AUTO 00000KT 9SM CLR 18/15 A3005 RMK AO2 SLP172 T01780150 TSNO
KLNS 290253Z AUTO 07004KT 10SM CLR 19/14 A3004 RMK AO2 SLP169 T01890144 51008 TSNO
KLNS 290153Z 00000KT 10SM CLR 19/13 A3004 RMK AO2 SLP168 T01940128
KLNS 290053Z VRB03KT 10SM CLR 21/12 A3004 RMK AO2 SLP170 T02110122
KLNS 282353Z 00000KT 10SM CLR 23/13 A3001 RMK AO2 SLP161 T02280128 10272 20228 51004
KLNS 282253Z 26003KT 10SM CLR 25/10 A3001 RMK AO2 SLP161 T02500100
KLNS 282153Z 25008KT 10SM CLR 26/10 A3001 RMK AO2 SLP160 T02610100
KLNS 282053Z 29007KT 10SM CLR 27/11 A3000 RMK AO2 SLP157 T02670106 58009
KLNS 281953Z 29009KT 10SM CLR 27/11 A3002 RMK AO2 SLP162 T02670111
KLNS 281853Z 28009KT 10SM CLR 26/12 A3003 RMK AO2 SLP168 T02610122
KLNS 281753Z 26007KT 10SM CLR 26/12 A3003 RMK AO2 SLP166 T02560117 10256 20183 51001
KLNS 281653Z 30008KT 10SM CLR 24/12 A3003 RMK AO2 SLP166 T02440117
KLNS 281553Z 28008KT 10SM CLR 24/13 A3005 RMK AO2 SLP172 T02390128
KLNS 281453Z 27009G17KT 10SM CLR 23/12 A3003 RMK AO2 SLP165 T02280117 51016
KLNS 281353Z 31011KT 10SM CLR 22/15 A3001 RMK AO2 SLP161 T02220150
KLNS 281253Z 30007KT 9SM CLR 21/18 A3000 RMK AO2 SLP158 T02110178
KLNS 281153Z 26003KT 5SM BR CLR 18/17 A2998 RMK AO2 SLP149 T01830172 10194 20144 51029 $
KLNS 281053Z 25003KT 5SM BR CLR 15/15 A2995 RMK AO2 SLP141 T01500150 $
KLNS 280953Z 27003KT 7SM CLR 16/16 A2992 RMK AO2 SLP129 T01560156 $
KLNS 280853Z AUTO 36003KT 7SM CLR 16/16 A2989 RMK AO2 SLP120 T01560156 53023 TSNO $
KLNS 280753Z AUTO 17003KT 9SM CLR 16/16 A2987 RMK AO2 SLP112 T01610156 TSNO $